sensor_id;sensor_type;location;lat;lon;timestamp;pressure;altitude;pressure_sealevel;temperature;humidity
16690;BME280;8458;52.220;9.884;2024-03-23T00:56:21;100079.84;;;8.45;100.00
16690;BME280;8458;52.220;9.884;2024-03-23T00:58:49;100072.09;;;8.47;100.00
16690;BME280;8458;52.220;9.884;2024-03-23T01:01:15;100072.09;;;8.47;100.00
16690;BME280;8458;52.220;9.884;2024-03-23T01:03:42;100061.06;;;8.52;100.00
16690;BME280;8458;52.220;9.884;2024-03-23T01:06:07;100059.44;;;8.56;100.00
16690;BME280;8458;52.220;9.884;2024-03-23T01:08:34;100059.75;;;8.59;100.00
16690;BME280;8458;52.220;9.884;2024-03-23T01:11:00;100050.91;;;8.63;100.00
16690;BME280;8458;52.220;9.884;2024-03-23T01:13:29;100042.94;;;8.66;100.00
16690;BME280;8458;52.220;9.884;2024-03-23T01:15:55;100036.28;;;8.62;100.00
16690;BME280;8458;52.220;9.884;2024-03-23T01:18:23;100029.69;;;8.68;100.00
16690;BME280;8458;52.220;9.884;2024-03-23T01:20:49;100029.66;;;8.63;100.00
16690;BME280;8458;52.220;9.884;2024-03-23T01:23:16;100035.44;;;8.61;100.00
16690;BME280;8458;52.220;9.884;2024-03-23T01:25:41;100029.06;;;8.61;100.00
16690;BME280;8458;52.220;9.884;2024-03-23T01:28:08;100024.69;;;8.65;100.00
16690;BME280;8458;52.220;9.884;2024-03-23T01:30:36;100026.34;;;8.66;100.00
16690;BME280;8458;52.220;9.884;2024-03-23T01:33:02;100016.41;;;8.70;100.00
16690;BME280;8458;52.220;9.884;2024-03-23T01:35:28;100012.56;;;8.71;100.00
16690;BME280;8458;52.220;9.884;2024-03-23T01:37:55;100016.38;;;8.60;100.00
16690;BME280;8458;52.220;9.884;2024-03-23T01:40:20;100008.91;;;8.60;100.00
16690;BME280;8458;52.220;9.884;2024-03-23T01:42:55;100012.50;;;8.61;100.00
16690;BME280;8458;52.220;9.884;2024-03-23T01:45:21;100013.03;;;8.58;100.00
16690;BME280;8458;52.220;9.884;2024-03-23T01:47:50;100012.50;;;8.61;100.00
16690;BME280;8458;52.220;9.884;2024-03-23T01:50:16;100001.97;;;8.58;100.00
16690;BME280;8458;52.220;9.884;2024-03-23T01:52:43;100000.88;;;8.54;100.00
16690;BME280;8458;52.220;9.884;2024-03-23T01:55:09;100001.97;;;8.58;100.00
16690;BME280;8458;52.220;9.884;2024-03-23T01:57:36;99999.19;;;8.53;100.00
16690;BME280;8458;52.220;9.884;2024-03-23T02:00:02;99995.91;;;8.61;100.00
16690;BME280;8458;52.220;9.884;2024-03-23T02:02:29;99985.66;;;8.56;100.00
16690;BME280;8458;52.220;9.884;2024-03-23T02:04:56;99994.75;;;8.52;100.00
16690;BME280;8458;52.220;9.884;2024-03-23T02:07:23;99990.34;;;8.51;100.00
16690;BME280;8458;52.220;9.884;2024-03-23T02:09:49;99987.00;;;8.49;100.00
16690;BME280;8458;52.220;9.884;2024-03-23T02:12:17;99983.69;;;8.47;100.00
16690;BME280;8458;52.220;9.884;2024-03-23T02:14:42;99981.47;;;8.49;100.00
16690;BME280;8458;52.220;9.884;2024-03-23T02:17:09;99965.94;;;8.42;100.00
16690;BME280;8458;52.220;9.884;2024-03-23T02:19:34;99962.41;;;8.47;100.00
16690;BME280;8458;52.220;9.884;2024-03-23T02:22:02;99963.53;;;8.51;100.00
16690;BME280;8458;52.220;9.884;2024-03-23T02:24:30;99971.56;;;8.53;100.00
16690;BME280;8458;52.220;9.884;2024-03-23T02:26:57;99967.94;;;8.47;100.00
16690;BME280;8458;52.220;9.884;2024-03-23T02:29:22;99959.91;;;8.46;100.00
16690;BME280;8458;52.220;9.884;2024-03-23T02:31:49;99951.56;;;8.40;100.00
16690;BME280;8458;52.220;9.884;2024-03-23T02:34:14;99947.22;;;8.45;100.00
16690;BME280;8458;52.220;9.884;2024-03-23T02:36:41;99949.97;;;8.45;100.00
16690;BME280;8458;52.220;9.884;2024-03-23T02:39:07;99941.63;;;8.39;100.00
16690;BME280;8458;52.220;9.884;2024-03-23T02:41:35;99941.16;;;8.48;100.00
16690;BME280;8458;52.220;9.884;2024-03-23T02:44:00;99943.66;;;8.49;100.00
16690;BME280;8458;52.220;9.884;2024-03-23T02:46:27;99936.72;;;8.47;100.00
16690;BME280;8458;52.220;9.884;2024-03-23T02:48:53;99925.13;;;8.50;100.00
16690;BME280;8458;52.220;9.884;2024-03-23T02:51:19;99921.81;;;8.53;100.00
16690;BME280;8458;52.220;9.884;2024-03-23T02:53:45;99922.38;;;8.50;100.00
16690;BME280;8458;52.220;9.884;2024-03-23T02:56:12;99928.16;;;8.48;100.00
16690;BME280;8458;52.220;9.884;2024-03-23T02:58:42;99922.91;;;8.47;100.00
16690;BME280;8458;52.220;9.884;2024-03-23T03:01:09;99915.75;;;8.51;100.00
16690;BME280;8458;52.220;9.884;2024-03-23T03:03:34;99921.19;;;8.40;100.00
16690;BME280;8458;52.220;9.884;2024-03-23T03:06:01;99905.50;;;8.46;100.00
16690;BME280;8458;52.220;9.884;2024-03-23T03:08:26;99907.16;;;8.47;100.00
16690;BME280;8458;52.220;9.884;2024-03-23T03:10:53;99904.66;;;8.46;100.00
16690;BME280;8458;52.220;9.884;2024-03-23T03:13:20;99905.78;;;8.50;100.00
16690;BME280;8458;52.220;9.884;2024-03-23T03:15:47;99898.59;;;8.49;100.00
16690;BME280;8458;52.220;9.884;2024-03-23T03:18:13;99905.78;;;8.50;100.00
16690;BME280;8458;52.220;9.884;2024-03-23T03:20:39;99898.06;;;8.52;100.00
16690;BME280;8458;52.220;9.884;2024-03-23T03:23:05;99904.44;;;8.52;100.00
16690;BME280;8458;52.220;9.884;2024-03-23T03:25:31;99907.47;;;8.51;100.00
16690;BME280;8458;52.220;9.884;2024-03-23T03:27:58;99895.81;;;8.49;100.00
16690;BME280;8458;52.220;9.884;2024-03-23T03:30:23;99894.19;;;8.48;100.00
16690;BME280;8458;52.220;9.884;2024-03-23T03:32:53;99894.13;;;8.42;100.00
16690;BME280;8458;52.220;9.884;2024-03-23T03:35:19;99908.72;;;8.38;100.00
16690;BME280;8458;52.220;9.884;2024-03-23T03:37:46;99907.38;;;8.40;100.00
16690;BME280;8458;52.220;9.884;2024-03-23T03:40:12;99901.84;;;8.35;100.00
16690;BME280;8458;52.220;9.884;2024-03-23T03:42:40;99898.75;;;8.32;100.00
16690;BME280;8458;52.220;9.884;2024-03-23T03:45:06;99908.66;;;8.22;100.00
16690;BME280;8458;52.220;9.884;2024-03-23T03:47:33;99905.88;;;8.17;100.00
16690;BME280;8458;52.220;9.884;2024-03-23T03:50:00;99900.09;;;8.19;100.00
16690;BME280;8458;52.220;9.884;2024-03-23T03:52:27;99903.94;;;8.18;100.00
16690;BME280;8458;52.220;9.884;2024-03-23T03:55:01;99893.75;;;8.18;100.00
16690;BME280;8458;52.220;9.884;2024-03-23T03:57:28;99901.16;;;8.13;100.00
16690;BME280;8458;52.220;9.884;2024-03-23T03:59:54;99903.28;;;8.00;100.00
16690;BME280;8458;52.220;9.884;2024-03-23T04:02:21;99900.44;;;7.85;100.00
16690;BME280;8458;52.220;9.884;2024-03-23T04:04:46;99892.91;;;7.70;100.00
16690;BME280;8458;52.220;9.884;2024-03-23T04:07:14;99890.06;;;7.65;100.00
16690;BME280;8458;52.220;9.884;2024-03-23T04:09:40;99882.00;;;7.53;100.00
16690;BME280;8458;52.220;9.884;2024-03-23T04:12:06;99890.16;;;7.38;100.00
16690;BME280;8458;52.220;9.884;2024-03-23T04:14:32;99881.75;;;7.22;100.00
16690;BME280;8458;52.220;9.884;2024-03-23T04:16:59;99882.81;;;7.16;100.00
16690;BME280;8458;52.220;9.884;2024-03-23T04:19:24;99874.81;;;7.20;100.00
16690;BME280;8458;52.220;9.884;2024-03-23T04:21:51;99873.41;;;7.17;100.00
16690;BME280;8458;52.220;9.884;2024-03-23T04:24:18;99871.44;;;7.12;100.00
16690;BME280;8458;52.220;9.884;2024-03-23T04:26:46;99871.44;;;7.12;100.00
16690;BME280;8458;52.220;9.884;2024-03-23T04:29:12;99870.72;;;7.22;100.00
16690;BME280;8458;52.220;9.884;2024-03-23T04:31:39;99870.78;;;7.32;100.00
16690;BME280;8458;52.220;9.884;2024-03-23T04:34:04;99867.25;;;7.37;100.00
16690;BME280;8458;52.220;9.884;2024-03-23T04:36:31;99859.59;;;7.44;100.00
16690;BME280;8458;52.220;9.884;2024-03-23T04:38:58;99871.19;;;7.46;100.00
16690;BME280;8458;52.220;9.884;2024-03-23T04:41:26;99860.69;;;7.43;100.00
16690;BME280;8458;52.220;9.884;2024-03-23T04:43:53;99859.84;;;7.43;100.00
16690;BME280;8458;52.220;9.884;2024-03-23T04:46:20;99862.09;;;7.46;100.00
16690;BME280;8458;52.220;9.884;2024-03-23T04:48:46;99851.53;;;7.38;100.00
16690;BME280;8458;52.220;9.884;2024-03-23T04:51:20;99854.03;;;7.39;100.00
16690;BME280;8458;52.220;9.884;2024-03-23T04:53:47;99855.16;;;7.43;100.00
16690;BME280;8458;52.220;9.884;2024-03-23T04:56:14;99856.00;;;7.44;100.00
16690;BME280;8458;52.220;9.884;2024-03-23T04:58:41;99850.69;;;7.37;100.00
16690;BME280;8458;52.220;9.884;2024-03-23T05:01:07;99847.53;;;7.23;100.00
16690;BME280;8458;52.220;9.884;2024-03-23T05:03:34;99850.28;;;7.18;100.00
16690;BME280;8458;52.220;9.884;2024-03-23T05:06:00;99853.56;;;7.15;100.00
16690;BME280;8458;52.220;9.884;2024-03-23T05:08:26;99851.88;;;7.14;100.00
16690;BME280;8458;52.220;9.884;2024-03-23T05:10:52;99837.31;;;7.18;100.00
16690;BME280;8458;52.220;9.884;2024-03-23T05:13:18;99837.09;;;7.25;100.00
16690;BME280;8458;52.220;9.884;2024-03-23T05:15:51;99836.53;;;7.23;100.00
16690;BME280;8458;52.220;9.884;2024-03-23T05:18:17;99827.72;;;7.26;100.00
16690;BME280;8458;52.220;9.884;2024-03-23T05:20:43;99830.00;;;7.34;100.00
16690;BME280;8458;52.220;9.884;2024-03-23T05:23:09;99826.47;;;7.39;100.00
16690;BME280;8458;52.220;9.884;2024-03-23T05:25:36;99823.47;;;7.46;100.00
16690;BME280;8458;52.220;9.884;2024-03-23T05:28:01;99818.22;;;7.44;100.00
16690;BME280;8458;52.220;9.884;2024-03-23T05:30:28;99818.50;;;7.48;100.00
16690;BME280;8458;52.220;9.884;2024-03-23T05:32:55;99824.03;;;7.48;100.00
16690;BME280;8458;52.220;9.884;2024-03-23T05:35:22;99834.22;;;7.47;100.00
16690;BME280;8458;52.220;9.884;2024-03-23T05:37:47;99845.78;;;7.44;100.00
16690;BME280;8458;52.220;9.884;2024-03-23T05:40:14;99846.31;;;7.41;100.00
16690;BME280;8458;52.220;9.884;2024-03-23T05:42:40;99849.63;;;7.38;100.00
16690;BME280;8458;52.220;9.884;2024-03-23T05:45:07;99845.19;;;7.37;100.00
16690;BME280;8458;52.220;9.884;2024-03-23T05:47:33;99849.06;;;7.36;100.00
16690;BME280;8458;52.220;9.884;2024-03-23T05:50:01;99843.75;;;7.29;100.00
16690;BME280;8458;52.220;9.884;2024-03-23T05:52:27;99843.69;;;7.19;100.00
16690;BME280;8458;52.220;9.884;2024-03-23T05:54:54;99845.25;;;7.10;100.00
16690;BME280;8458;52.220;9.884;2024-03-23T05:57:19;99850.78;;;6.82;100.00
16690;BME280;8458;52.220;9.884;2024-03-23T05:59:46;99847.63;;;6.74;100.00
16690;BME280;8458;52.220;9.884;2024-03-23T06:02:11;99841.09;;;6.80;100.00
16690;BME280;8458;52.220;9.884;2024-03-23T06:04:38;99841.31;;;6.73;100.00
16690;BME280;8458;52.220;9.884;2024-03-23T06:07:06;99841.53;;;6.67;100.00
16690;BME280;8458;52.220;9.884;2024-03-23T06:09:32;99846.34;;;6.54;99.49
16690;BME280;8458;52.220;9.884;2024-03-23T06:11:59;99840.28;;;6.52;100.00
16690;BME280;8458;52.220;9.884;2024-03-23T06:14:25;99837.53;;;6.52;100.00
16690;BME280;8458;52.220;9.884;2024-03-23T06:16:51;99842.66;;;6.43;99.69
16690;BME280;8458;52.220;9.884;2024-03-23T06:19:17;99841.22;;;6.41;100.00
16690;BME280;8458;52.220;9.884;2024-03-23T06:21:43;99830.38;;;6.56;100.00
16690;BME280;8458;52.220;9.884;2024-03-23T06:24:10;99830.00;;;6.70;100.00
16690;BME280;8458;52.220;9.884;2024-03-23T06:26:37;99832.25;;;6.78;100.00
16690;BME280;8458;52.220;9.884;2024-03-23T06:29:03;99830.13;;;6.85;100.00
16690;BME280;8458;52.220;9.884;2024-03-23T06:31:30;99835.38;;;6.87;99.60
16690;BME280;8458;52.220;9.884;2024-03-23T06:33:56;99833.19;;;6.89;99.46
16690;BME280;8458;52.220;9.884;2024-03-23T06:36:22;99836.84;;;6.94;100.00
16690;BME280;8458;52.220;9.884;2024-03-23T06:38:48;99840.19;;;7.02;100.00
16690;BME280;8458;52.220;9.884;2024-03-23T06:41:16;99831.91;;;7.02;99.67
16690;BME280;8458;52.220;9.884;2024-03-23T06:43:41;99843.56;;;7.09;99.96
16690;BME280;8458;52.220;9.884;2024-03-23T06:46:08;99847.13;;;7.04;99.94
16690;BME280;8458;52.220;9.884;2024-03-23T06:48:33;99833.03;;;7.00;100.00
16690;BME280;8458;52.220;9.884;2024-03-23T06:51:00;99832.13;;;6.90;100.00
16690;BME280;8458;52.220;9.884;2024-03-23T06:53:26;99840.06;;;6.86;100.00
16690;BME280;8458;52.220;9.884;2024-03-23T06:55:53;99836.22;;;6.87;100.00
16690;BME280;8458;52.220;9.884;2024-03-23T06:58:21;99844.22;;;6.89;99.63
16690;BME280;8458;52.220;9.884;2024-03-23T07:00:47;99836.22;;;6.87;99.36
16690;BME280;8458;52.220;9.884;2024-03-23T07:03:14;99841.19;;;6.90;98.78
16690;BME280;8458;52.220;9.884;2024-03-23T07:05:41;99839.78;;;6.88;98.24
16690;BME280;8458;52.220;9.884;2024-03-23T07:08:07;99840.78;;;6.76;99.00
16690;BME280;8458;52.220;9.884;2024-03-23T07:10:34;99849.16;;;6.87;99.17
16690;BME280;8458;52.220;9.884;2024-03-23T07:13:00;99834.88;;;6.90;99.42
16690;BME280;8458;52.220;9.884;2024-03-23T07:15:28;99852.22;;;6.90;100.00
16690;BME280;8458;52.220;9.884;2024-03-23T07:17:54;99849.69;;;6.84;99.85
16690;BME280;8458;52.220;9.884;2024-03-23T07:20:21;99841.94;;;6.80;100.00
16690;BME280;8458;52.220;9.884;2024-03-23T07:22:46;99830.97;;;6.86;100.00
16690;BME280;8458;52.220;9.884;2024-03-23T07:25:14;99828.72;;;6.82;100.00
16690;BME280;8458;52.220;9.884;2024-03-23T07:27:40;99827.38;;;6.85;100.00
16690;BME280;8458;52.220;9.884;2024-03-23T07:30:07;99827.69;;;6.89;100.00
16690;BME280;8458;52.220;9.884;2024-03-23T07:32:35;99826.78;;;6.83;100.00
16690;BME280;8458;52.220;9.884;2024-03-23T07:35:02;99832.91;;;6.85;100.00
16690;BME280;8458;52.220;9.884;2024-03-23T07:37:28;99834.34;;;6.93;100.00
16690;BME280;8458;52.220;9.884;2024-03-23T07:39:54;99836.25;;;6.92;100.00
16690;BME280;8458;52.220;9.884;2024-03-23T07:42:20;99845.03;;;6.89;100.00
16690;BME280;8458;52.220;9.884;2024-03-23T07:44:47;99847.63;;;7.01;100.00
16690;BME280;8458;52.220;9.884;2024-03-23T07:47:12;99857.88;;;7.06;100.00
16690;BME280;8458;52.220;9.884;2024-03-23T07:49:40;99851.28;;;7.07;100.00
16690;BME280;8458;52.220;9.884;2024-03-23T07:52:06;99847.59;;;6.96;100.00
16690;BME280;8458;52.220;9.884;2024-03-23T07:54:33;99847.00;;;6.94;100.00
16690;BME280;8458;52.220;9.884;2024-03-23T07:56:59;99846.22;;;6.98;100.00
16690;BME280;8458;52.220;9.884;2024-03-23T07:59:25;99843.47;;;6.98;100.00
16690;BME280;8458;52.220;9.884;2024-03-23T08:01:51;99837.38;;;6.91;100.00
16690;BME280;8458;52.220;9.884;2024-03-23T08:04:18;99839.00;;;6.92;100.00
16690;BME280;8458;52.220;9.884;2024-03-23T08:06:45;99837.38;;;6.91;100.00
16690;BME280;8458;52.220;9.884;2024-03-23T08:09:12;99848.97;;;6.98;100.00
16690;BME280;8458;52.220;9.884;2024-03-23T08:11:37;99839.94;;;7.03;100.00
16690;BME280;8458;52.220;9.884;2024-03-23T08:14:04;99835.88;;;7.11;100.00
16690;BME280;8458;52.220;9.884;2024-03-23T08:16:31;99828.19;;;7.13;100.00
16690;BME280;8458;52.220;9.884;2024-03-23T08:18:59;99828.44;;;7.11;100.00
16690;BME280;8458;52.220;9.884;2024-03-23T08:21:24;99831.50;;;7.15;100.00
16690;BME280;8458;52.220;9.884;2024-03-23T08:23:53;99828.72;;;7.10;100.00
16690;BME280;8458;52.220;9.884;2024-03-23T08:26:18;99833.06;;;7.06;100.00
16690;BME280;8458;52.220;9.884;2024-03-23T08:28:45;99836.84;;;6.94;100.00
16690;BME280;8458;52.220;9.884;2024-03-23T08:31:11;99834.13;;;6.99;100.00
16690;BME280;8458;52.220;9.884;2024-03-23T08:33:39;99834.66;;;6.96;100.00
16690;BME280;8458;52.220;9.884;2024-03-23T08:36:06;99834.75;;;7.07;100.00
16690;BME280;8458;52.220;9.884;2024-03-23T08:38:34;99841.97;;;7.13;100.00
16690;BME280;8458;52.220;9.884;2024-03-23T08:41:02;99845.91;;;7.22;100.00
16690;BME280;8458;52.220;9.884;2024-03-23T08:43:30;99837.09;;;7.25;100.00
16690;BME280;8458;52.220;9.884;2024-03-23T08:46:03;99836.53;;;7.23;100.00
16690;BME280;8458;52.220;9.884;2024-03-23T08:48:30;99837.16;;;7.35;100.00
16690;BME280;8458;52.220;9.884;2024-03-23T08:51:00;99844.09;;;7.38;100.00
16690;BME280;8458;52.220;9.884;2024-03-23T08:53:27;99836.09;;;7.36;100.00
16690;BME280;8458;52.220;9.884;2024-03-23T08:55:53;99838.84;;;7.36;100.00
16690;BME280;8458;52.220;9.884;2024-03-23T08:58:22;99839.47;;;7.44;100.00
16690;BME280;8458;52.220;9.884;2024-03-23T09:00:49;99847.53;;;7.56;100.00
16690;BME280;8458;52.220;9.884;2024-03-23T09:03:16;99844.56;;;7.62;100.00
16690;BME280;8458;52.220;9.884;2024-03-23T09:05:41;99847.38;;;7.72;98.04
16690;BME280;8458;52.220;9.884;2024-03-23T09:08:08;99849.06;;;7.79;95.65
16690;BME280;8458;52.220;9.884;2024-03-23T09:13:04;99849.97;;;7.95;94.06
16690;BME280;8458;52.220;9.884;2024-03-23T09:15:31;99825.97;;;7.95;91.92
16690;BME280;8458;52.220;9.884;2024-03-23T09:17:59;99834.00;;;7.97;91.52
16690;BME280;8458;52.220;9.884;2024-03-23T09:20:24;99847.72;;;7.86;90.96
16690;BME280;8458;52.220;9.884;2024-03-23T09:22:51;99854.09;;;7.87;90.53
16690;BME280;8458;52.220;9.884;2024-03-23T09:25:17;99856.78;;;7.77;90.06
16690;BME280;8458;52.220;9.884;2024-03-23T09:27:45;99853.38;;;7.59;89.63
16690;BME280;8458;52.220;9.884;2024-03-23T09:30:12;99859.16;;;7.58;89.38
16690;BME280;8458;52.220;9.884;2024-03-23T09:32:41;99860.88;;;7.69;88.87
16690;BME280;8458;52.220;9.884;2024-03-23T09:35:07;99858.50;;;7.88;89.90
16690;BME280;8458;52.220;9.884;2024-03-23T09:37:34;99847.81;;;8.07;88.95
16690;BME280;8458;52.220;9.884;2024-03-23T09:40:00;99852.59;;;8.22;89.87
16690;BME280;8458;52.220;9.884;2024-03-23T09:42:26;99844.38;;;8.37;88.58
16690;BME280;8458;52.220;9.884;2024-03-23T09:44:52;99853.75;;;8.36;87.59
16690;BME280;8458;52.220;9.884;2024-03-23T09:47:19;99860.34;;;8.30;86.50
16690;BME280;8458;52.220;9.884;2024-03-23T09:49:46;99845.97;;;8.23;86.39
16690;BME280;8458;52.220;9.884;2024-03-23T09:52:12;99851.19;;;8.19;84.83
16690;BME280;8458;52.220;9.884;2024-03-23T09:54:38;99852.34;;;8.29;84.57
16690;BME280;8458;52.220;9.884;2024-03-23T09:57:05;99853.13;;;8.19;84.10
16690;BME280;8458;52.220;9.884;2024-03-23T09:59:32;99849.75;;;8.06;85.61
16690;BME280;8458;52.220;9.884;2024-03-23T10:01:59;99851.69;;;8.06;86.17
16690;BME280;8458;52.220;9.884;2024-03-23T10:04:44;99852.50;;;8.01;82.85
16690;BME280;8458;52.220;9.884;2024-03-23T10:07:12;99842.81;;;7.94;81.59
16690;BME280;8458;52.220;9.884;2024-03-23T10:09:38;99837.59;;;8.02;82.14
16690;BME280;8458;52.220;9.884;2024-03-23T10:12:09;99840.47;;;8.23;80.85
16690;BME280;8458;52.220;9.884;2024-03-23T10:14:35;99839.19;;;8.46;80.52
16690;BME280;8458;52.220;9.884;2024-03-23T10:17:12;99831.22;;;8.65;79.89
16690;BME280;8458;52.220;9.884;2024-03-23T10:19:39;99824.38;;;8.83;78.86
16690;BME280;8458;52.220;9.884;2024-03-23T10:22:07;99824.63;;;8.92;78.83
16690;BME280;8458;52.220;9.884;2024-03-23T10:24:34;99829.03;;;8.72;75.37
16690;BME280;8458;52.220;9.884;2024-03-23T10:27:00;99836.72;;;8.50;74.70
16690;BME280;8458;52.220;9.884;2024-03-23T10:29:26;99823.13;;;8.43;75.38
16690;BME280;8458;52.220;9.884;2024-03-23T10:31:53;99816.59;;;8.65;76.85
16690;BME280;8458;52.220;9.884;2024-03-23T10:34:25;99816.34;;;8.92;77.98
16690;BME280;8458;52.220;9.884;2024-03-23T10:36:53;99811.38;;;9.04;73.87
16690;BME280;8458;52.220;9.884;2024-03-23T10:39:19;99809.47;;;9.20;72.07
16690;BME280;8458;52.220;9.884;2024-03-23T10:41:49;99808.03;;;9.38;72.44
16690;BME280;8458;52.220;9.884;2024-03-23T10:44:16;99804.72;;;9.51;70.82
16690;BME280;8458;52.220;9.884;2024-03-23T10:46:45;99805.25;;;9.59;71.25
16690;BME280;8458;52.220;9.884;2024-03-23T10:49:10;99804.72;;;9.51;70.92
16690;BME280;8458;52.220;9.884;2024-03-23T10:51:37;99800.84;;;9.47;70.80
16690;BME280;8458;52.220;9.884;2024-03-23T10:54:04;99814.69;;;9.32;69.62
16690;BME280;8458;52.220;9.884;2024-03-23T10:56:34;99820.78;;;9.03;71.35
16690;BME280;8458;52.220;9.884;2024-03-23T10:59:03;99839.72;;;8.43;71.64
16690;BME280;8458;52.220;9.884;2024-03-23T11:01:31;99827.72;;;8.17;74.20
16690;BME280;8458;52.220;9.884;2024-03-23T11:03:56;99822.22;;;8.22;76.42
16690;BME280;8458;52.220;9.884;2024-03-23T11:06:36;99832.09;;;8.07;78.41
16690;BME280;8458;52.220;9.884;2024-03-23T11:09:02;99823.25;;;8.05;77.73
16690;BME280;8458;52.220;9.884;2024-03-23T11:11:29;99819.38;;;8.06;79.86
16690;BME280;8458;52.220;9.884;2024-03-23T11:13:59;99823.28;;;8.11;79.00
16690;BME280;8458;52.220;9.884;2024-03-23T11:16:28;99820.31;;;8.33;80.63
16690;BME280;8458;52.220;9.884;2024-03-23T11:21:57;99805.84;;;8.84;79.95
16690;BME280;8458;52.220;9.884;2024-03-23T11:24:23;99806.41;;;9.01;79.73
16690;BME280;8458;52.220;9.884;2024-03-23T11:26:50;99798.38;;;9.30;80.80
16690;BME280;8458;52.220;9.884;2024-03-23T11:29:16;99794.78;;;9.45;78.95
16690;BME280;8458;52.220;9.884;2024-03-23T11:31:46;99792.56;;;9.42;75.16
16690;BME280;8458;52.220;9.884;2024-03-23T11:34:12;99809.44;;;9.30;75.26
16690;BME280;8458;52.220;9.884;2024-03-23T11:36:39;99858.31;;;8.73;75.83
16690;BME280;8458;52.220;9.884;2024-03-23T11:39:13;99853.75;;;8.31;78.06
16690;BME280;8458;52.220;9.884;2024-03-23T11:41:47;99839.25;;;7.98;79.83
16690;BME280;8458;52.220;9.884;2024-03-23T11:44:17;99833.72;;;7.98;83.62
16690;BME280;8458;52.220;9.884;2024-03-23T11:46:44;99831.53;;;8.05;84.29
16690;BME280;8458;52.220;9.884;2024-03-23T11:49:22;99817.84;;;8.36;86.31
16690;BME280;8458;52.220;9.884;2024-03-23T11:51:50;99814.06;;;8.58;87.18
16690;BME280;8458;52.220;9.884;2024-03-23T11:54:20;99819.09;;;8.71;87.24
16690;BME280;8458;52.220;9.884;2024-03-23T11:56:56;99817.44;;;8.81;85.74
16690;BME280;8458;52.220;9.884;2024-03-23T11:59:32;99813.56;;;8.92;86.66
16690;BME280;8458;52.220;9.884;2024-03-23T12:01:59;99822.44;;;9.04;85.90
16690;BME280;8458;52.220;9.884;2024-03-23T12:04:26;99813.03;;;9.10;86.21
16690;BME280;8458;52.220;9.884;2024-03-23T12:07:14;99810.28;;;9.10;87.09
16690;BME280;8458;52.220;9.884;2024-03-23T12:09:41;99817.44;;;9.01;86.42
16690;BME280;8458;52.220;9.884;2024-03-23T12:12:10;99824.06;;;8.74;85.46
16690;BME280;8458;52.220;9.884;2024-03-23T12:14:36;99847.75;;;8.45;86.50
16690;BME280;8458;52.220;9.884;2024-03-23T12:17:10;99869.97;;;7.69;88.27
16690;BME280;8458;52.220;9.884;2024-03-23T12:19:36;99876.44;;;7.48;89.90
16690;BME280;8458;52.220;9.884;2024-03-23T12:22:03;99892.41;;;7.13;91.57
16690;BME280;8458;52.220;9.884;2024-03-23T12:24:29;99875.19;;;6.74;93.08
16690;BME280;8458;52.220;9.884;2024-03-23T12:27:01;99857.09;;;6.56;92.85
16690;BME280;8458;52.220;9.884;2024-03-23T12:29:28;99852.53;;;6.67;95.93
16690;BME280;8458;52.220;9.884;2024-03-23T12:31:55;99846.59;;;6.80;97.80
16690;BME280;8458;52.220;9.884;2024-03-23T12:34:21;99850.75;;;7.10;97.94
16690;BME280;8458;52.220;9.884;2024-03-23T12:36:48;99849.31;;;7.34;99.40
16690;BME280;8458;52.220;9.884;2024-03-23T12:39:13;99854.09;;;7.49;99.19
16690;BME280;8458;52.220;9.884;2024-03-23T12:41:40;99855.53;;;7.57;98.44
16690;BME280;8458;52.220;9.884;2024-03-23T12:44:07;99849.44;;;7.50;93.84
16690;BME280;8458;52.220;9.884;2024-03-23T12:46:37;99854.16;;;7.54;95.62
16690;BME280;8458;52.220;9.884;2024-03-23T12:49:02;99865.47;;;7.58;95.66
16690;BME280;8458;52.220;9.884;2024-03-23T12:51:29;99866.50;;;7.47;95.56
16690;BME280;8458;52.220;9.884;2024-03-23T12:53:54;99879.50;;;7.51;96.96
16690;BME280;8458;52.220;9.884;2024-03-23T12:56:21;99866.66;;;7.30;94.85
16690;BME280;8458;52.220;9.884;2024-03-23T12:58:46;99905.81;;;7.05;93.49
16690;BME280;8458;52.220;9.884;2024-03-23T13:01:18;99907.50;;;6.56;96.75
16690;BME280;8458;52.220;9.884;2024-03-23T13:03:46;99905.34;;;6.14;98.44
16690;BME280;8458;52.220;9.884;2024-03-23T13:06:12;99909.03;;;6.03;98.26
16690;BME280;8458;52.220;9.884;2024-03-23T13:08:38;99894.88;;;5.77;98.57
16690;BME280;8458;52.220;9.884;2024-03-23T13:11:05;99862.00;;;5.87;99.84
16690;BME280;8458;52.220;9.884;2024-03-23T13:13:34;99847.78;;;6.13;100.00
16690;BME280;8458;52.220;9.884;2024-03-23T13:16:00;99842.72;;;6.26;99.48
16690;BME280;8458;52.220;9.884;2024-03-23T13:18:27;99844.44;;;6.33;97.69
16690;BME280;8458;52.220;9.884;2024-03-23T13:20:54;99850.13;;;6.48;98.36
16690;BME280;8458;52.220;9.884;2024-03-23T13:23:19;99849.63;;;6.51;97.01
16690;BME280;8458;52.220;9.884;2024-03-23T13:25:50;99848.22;;;6.76;97.96
16690;BME280;8458;52.220;9.884;2024-03-23T13:28:15;99856.50;;;6.76;95.52
16690;BME280;8458;52.220;9.884;2024-03-23T13:30:49;99852.50;;;6.89;96.74
16690;BME280;8458;52.220;9.884;2024-03-23T13:33:15;99845.72;;;7.02;94.88
16690;BME280;8458;52.220;9.884;2024-03-23T13:35:50;99844.75;;;7.18;93.63
16690;BME280;8458;52.220;9.884;2024-03-23T13:38:15;99847.50;;;7.18;92.74
16690;BME280;8458;52.220;9.884;2024-03-23T13:40:52;99838.75;;;7.26;92.94
16690;BME280;8458;52.220;9.884;2024-03-23T13:43:18;99838.84;;;7.36;91.64
16690;BME280;8458;52.220;9.884;2024-03-23T13:45:45;99840.56;;;7.48;92.88
16690;BME280;8458;52.220;9.884;2024-03-23T13:48:11;99833.00;;;7.70;91.70
16690;BME280;8458;52.220;9.884;2024-03-23T13:50:38;99835.03;;;7.85;90.27
16690;BME280;8458;52.220;9.884;2024-03-23T13:53:05;99835.94;;;8.01;89.65
16690;BME280;8458;52.220;9.884;2024-03-23T13:55:33;99832.66;;;8.10;88.35
16690;BME280;8458;52.220;9.884;2024-03-23T13:57:59;99842.00;;;8.03;85.68
16690;BME280;8458;52.220;9.884;2024-03-23T14:00:25;99837.97;;;8.26;88.65
16690;BME280;8458;52.220;9.884;2024-03-23T14:02:51;99842.75;;;8.41;87.80
16690;BME280;8458;52.220;9.884;2024-03-23T14:05:17;99844.38;;;8.42;84.02
16690;BME280;8458;52.220;9.884;2024-03-23T14:07:43;99845.50;;;8.41;84.87
16690;BME280;8458;52.220;9.884;2024-03-23T14:10:11;99843.81;;;8.35;85.58
16690;BME280;8458;52.220;9.884;2024-03-23T14:12:37;99845.47;;;8.36;83.48
16690;BME280;8458;52.220;9.884;2024-03-23T14:15:05;99853.16;;;8.24;83.97